sensor_id;sensor_type;location;lat;lon;timestamp;P1;durP1;ratioP1;P2;durP2;ratioP2
12433;SDS011;6281;49.038;8.372;2023-05-10T00:00:23;0.97;;;0.80;;
12433;SDS011;6281;49.038;8.372;2023-05-10T00:02:50;0.80;;;0.70;;
12433;SDS011;6281;49.038;8.372;2023-05-10T00:05:19;0.80;;;0.67;;
12433;SDS011;6281;49.038;8.372;2023-05-10T00:07:46;1.03;;;0.63;;
12433;SDS011;6281;49.038;8.372;2023-05-10T00:10:13;0.93;;;0.80;;
12433;SDS011;6281;49.038;8.372;2023-05-10T00:12:40;0.67;;;0.57;;
12433;SDS011;6281;49.038;8.372;2023-05-10T00:15:08;1.53;;;0.70;;
12433;SDS011;6281;49.038;8.372;2023-05-10T00:17:35;0.97;;;0.67;;
12433;SDS011;6281;49.038;8.372;2023-05-10T00:20:02;4.10;;;0.50;;
12433;SDS011;6281;49.038;8.372;2023-05-10T00:22:31;0.70;;;0.70;;
12433;SDS011;6281;49.038;8.372;2023-05-10T00:24:58;1.60;;;0.70;;
12433;SDS011;6281;49.038;8.372;2023-05-10T00:27:25;0.60;;;0.47;;
12433;SDS011;6281;49.038;8.372;2023-05-10T00:29:52;0.50;;;0.50;;
12433;SDS011;6281;49.038;8.372;2023-05-10T00:32:19;0.70;;;0.60;;
12433;SDS011;6281;49.038;8.372;2023-05-10T00:34:46;0.60;;;0.60;;
12433;SDS011;6281;49.038;8.372;2023-05-10T00:37:13;0.60;;;0.50;;
12433;SDS011;6281;49.038;8.372;2023-05-10T00:39:41;0.87;;;0.50;;
12433;SDS011;6281;49.038;8.372;2023-05-10T00:42:08;2.10;;;0.60;;
12433;SDS011;6281;49.038;8.372;2023-05-10T00:44:35;0.63;;;0.63;;
12433;SDS011;6281;49.038;8.372;2023-05-10T00:47:02;0.47;;;0.47;;
12433;SDS011;6281;49.038;8.372;2023-05-10T00:49:29;0.43;;;0.43;;
12433;SDS011;6281;49.038;8.372;2023-05-10T00:51:56;0.80;;;0.60;;
12433;SDS011;6281;49.038;8.372;2023-05-10T00:54:23;0.60;;;0.60;;
12433;SDS011;6281;49.038;8.372;2023-05-10T00:56:52;0.80;;;0.63;;
12433;SDS011;6281;49.038;8.372;2023-05-10T00:59:19;0.93;;;0.53;;
12433;SDS011;6281;49.038;8.372;2023-05-10T01:01:46;1.00;;;0.60;;
12433;SDS011;6281;49.038;8.372;2023-05-10T01:04:14;1.00;;;0.90;;
12433;SDS011;6281;49.038;8.372;2023-05-10T01:06:41;0.77;;;0.77;;
12433;SDS011;6281;49.038;8.372;2023-05-10T01:09:09;0.80;;;0.50;;
12433;SDS011;6281;49.038;8.372;2023-05-10T01:11:38;1.03;;;0.70;;
12433;SDS011;6281;49.038;8.372;2023-05-10T01:14:07;2.30;;;0.67;;
12433;SDS011;6281;49.038;8.372;2023-05-10T01:16:36;1.33;;;0.80;;
12433;SDS011;6281;49.038;8.372;2023-05-10T01:19:04;0.77;;;0.70;;
12433;SDS011;6281;49.038;8.372;2023-05-10T01:21:38;0.90;;;0.67;;
12433;SDS011;6281;49.038;8.372;2023-05-10T01:24:12;1.80;;;0.73;;
12433;SDS011;6281;49.038;8.372;2023-05-10T01:27:02;0.63;;;0.63;;
12433;SDS011;6281;49.038;8.372;2023-05-10T01:30:05;0.90;;;0.80;;
12433;SDS011;6281;49.038;8.372;2023-05-10T01:33:07;0.53;;;0.53;;
12433;SDS011;6281;49.038;8.372;2023-05-10T01:35:39;1.00;;;0.90;;
12433;SDS011;6281;49.038;8.372;2023-05-10T01:38:11;0.73;;;0.60;;
12433;SDS011;6281;49.038;8.372;2023-05-10T01:40:47;0.80;;;0.80;;
12433;SDS011;6281;49.038;8.372;2023-05-10T01:43:19;0.90;;;0.80;;
12433;SDS011;6281;49.038;8.372;2023-05-10T01:45:54;1.20;;;0.90;;
12433;SDS011;6281;49.038;8.372;2023-05-10T01:48:31;1.20;;;0.97;;
12433;SDS011;6281;49.038;8.372;2023-05-10T01:50:59;1.57;;;1.07;;
12433;SDS011;6281;49.038;8.372;2023-05-10T01:53:26;1.73;;;1.00;;
12433;SDS011;6281;49.038;8.372;2023-05-10T01:55:55;1.40;;;1.10;;
12433;SDS011;6281;49.038;8.372;2023-05-10T01:58:23;1.30;;;1.10;;
12433;SDS011;6281;49.038;8.372;2023-05-10T02:00:53;1.63;;;1.53;;
12433;SDS011;6281;49.038;8.372;2023-05-10T02:03:21;1.30;;;1.10;;
12433;SDS011;6281;49.038;8.372;2023-05-10T02:05:50;1.33;;;1.23;;
12433;SDS011;6281;49.038;8.372;2023-05-10T02:08:19;1.53;;;1.23;;
12433;SDS011;6281;49.038;8.372;2023-05-10T02:10:48;1.10;;;1.00;;
12433;SDS011;6281;49.038;8.372;2023-05-10T02:13:17;1.67;;;1.23;;
12433;SDS011;6281;49.038;8.372;2023-05-10T02:15:45;1.73;;;1.33;;
12433;SDS011;6281;49.038;8.372;2023-05-10T02:18:13;1.57;;;1.40;;
12433;SDS011;6281;49.038;8.372;2023-05-10T02:20:41;1.40;;;1.30;;
12433;SDS011;6281;49.038;8.372;2023-05-10T02:23:11;1.67;;;1.40;;
12433;SDS011;6281;49.038;8.372;2023-05-10T02:25:39;1.93;;;1.17;;
12433;SDS011;6281;49.038;8.372;2023-05-10T02:28:07;2.33;;;1.73;;
12433;SDS011;6281;49.038;8.372;2023-05-10T02:30:34;1.63;;;1.47;;
12433;SDS011;6281;49.038;8.372;2023-05-10T02:33:01;2.33;;;1.80;;
12433;SDS011;6281;49.038;8.372;2023-05-10T02:35:31;2.13;;;1.70;;
12433;SDS011;6281;49.038;8.372;2023-05-10T02:37:58;2.47;;;1.63;;
12433;SDS011;6281;49.038;8.372;2023-05-10T02:40:27;2.80;;;2.10;;
12433;SDS011;6281;49.038;8.372;2023-05-10T02:42:56;2.67;;;2.03;;
12433;SDS011;6281;49.038;8.372;2023-05-10T02:45:24;2.37;;;1.90;;
12433;SDS011;6281;49.038;8.372;2023-05-10T02:47:54;2.50;;;1.73;;
12433;SDS011;6281;49.038;8.372;2023-05-10T02:50:21;2.57;;;2.00;;
12433;SDS011;6281;49.038;8.372;2023-05-10T02:52:51;3.80;;;2.20;;
12433;SDS011;6281;49.038;8.372;2023-05-10T02:55:21;4.27;;;2.10;;
12433;SDS011;6281;49.038;8.372;2023-05-10T02:57:54;3.40;;;2.17;;
12433;SDS011;6281;49.038;8.372;2023-05-10T03:00:24;2.37;;;1.50;;
12433;SDS011;6281;49.038;8.372;2023-05-10T03:02:51;3.37;;;2.37;;
12433;SDS011;6281;49.038;8.372;2023-05-10T03:05:18;3.20;;;2.20;;
12433;SDS011;6281;49.038;8.372;2023-05-10T03:07:45;3.03;;;2.30;;
12433;SDS011;6281;49.038;8.372;2023-05-10T03:10:12;3.43;;;2.23;;
12433;SDS011;6281;49.038;8.372;2023-05-10T03:12:43;1.80;;;1.40;;
12433;SDS011;6281;49.038;8.372;2023-05-10T03:15:22;3.80;;;2.53;;
12433;SDS011;6281;49.038;8.372;2023-05-10T03:18:01;3.40;;;2.43;;
12433;SDS011;6281;49.038;8.372;2023-05-10T03:20:35;3.00;;;2.60;;
12433;SDS011;6281;49.038;8.372;2023-05-10T03:23:04;4.10;;;2.67;;
12433;SDS011;6281;49.038;8.372;2023-05-10T03:25:36;2.97;;;2.10;;
12433;SDS011;6281;49.038;8.372;2023-05-10T03:28:05;3.07;;;2.27;;
12433;SDS011;6281;49.038;8.372;2023-05-10T03:30:34;3.77;;;2.50;;
12433;SDS011;6281;49.038;8.372;2023-05-10T03:33:04;2.90;;;2.40;;
12433;SDS011;6281;49.038;8.372;2023-05-10T03:35:31;3.03;;;2.50;;
12433;SDS011;6281;49.038;8.372;2023-05-10T03:37:58;3.23;;;2.30;;
12433;SDS011;6281;49.038;8.372;2023-05-10T03:40:25;2.70;;;2.20;;
12433;SDS011;6281;49.038;8.372;2023-05-10T03:42:56;2.97;;;2.10;;
12433;SDS011;6281;49.038;8.372;2023-05-10T03:45:23;3.23;;;2.50;;
12433;SDS011;6281;49.038;8.372;2023-05-10T03:47:51;3.80;;;2.50;;
12433;SDS011;6281;49.038;8.372;2023-05-10T03:50:19;2.73;;;2.27;;
12433;SDS011;6281;49.038;8.372;2023-05-10T03:52:45;2.50;;;2.30;;
12433;SDS011;6281;49.038;8.372;2023-05-10T03:55:12;3.00;;;2.27;;
12433;SDS011;6281;49.038;8.372;2023-05-10T03:57:39;3.00;;;2.57;;
12433;SDS011;6281;49.038;8.372;2023-05-10T04:00:07;2.87;;;2.40;;
12433;SDS011;6281;49.038;8.372;2023-05-10T04:02:34;2.53;;;2.10;;
12433;SDS011;6281;49.038;8.372;2023-05-10T04:05:03;3.13;;;2.47;;
12433;SDS011;6281;49.038;8.372;2023-05-10T04:07:30;4.47;;;2.53;;
12433;SDS011;6281;49.038;8.372;2023-05-10T04:09:57;2.30;;;2.10;;
12433;SDS011;6281;49.038;8.372;2023-05-10T04:12:24;3.43;;;2.40;;
12433;SDS011;6281;49.038;8.372;2023-05-10T04:14:51;3.03;;;2.27;;
12433;SDS011;6281;49.038;8.372;2023-05-10T04:17:18;3.30;;;2.30;;
12433;SDS011;6281;49.038;8.372;2023-05-10T04:19:45;2.53;;;2.13;;
12433;SDS011;6281;49.038;8.372;2023-05-10T04:22:13;3.60;;;2.73;;
12433;SDS011;6281;49.038;8.372;2023-05-10T04:24:40;3.03;;;2.30;;
12433;SDS011;6281;49.038;8.372;2023-05-10T04:27:07;2.47;;;2.13;;
12433;SDS011;6281;49.038;8.372;2023-05-10T04:29:34;2.40;;;2.20;;
12433;SDS011;6281;49.038;8.372;2023-05-10T04:32:01;2.33;;;2.07;;
12433;SDS011;6281;49.038;8.372;2023-05-10T04:34:29;2.30;;;2.07;;
12433;SDS011;6281;49.038;8.372;2023-05-10T04:36:56;3.17;;;2.50;;
12433;SDS011;6281;49.038;8.372;2023-05-10T04:39:24;2.70;;;2.40;;
12433;SDS011;6281;49.038;8.372;2023-05-10T04:41:51;3.67;;;2.30;;
12433;SDS011;6281;49.038;8.372;2023-05-10T04:44:18;3.43;;;2.50;;
12433;SDS011;6281;49.038;8.372;2023-05-10T04:46:45;2.50;;;2.20;;
12433;SDS011;6281;49.038;8.372;2023-05-10T04:49:12;2.93;;;2.13;;
12433;SDS011;6281;49.038;8.372;2023-05-10T04:51:39;2.97;;;2.60;;
12433;SDS011;6281;49.038;8.372;2023-05-10T04:54:06;3.23;;;2.33;;
12433;SDS011;6281;49.038;8.372;2023-05-10T04:56:34;2.50;;;1.80;;
12433;SDS011;6281;49.038;8.372;2023-05-10T04:59:01;3.00;;;1.87;;
12433;SDS011;6281;49.038;8.372;2023-05-10T05:01:28;3.17;;;2.50;;
12433;SDS011;6281;49.038;8.372;2023-05-10T05:03:54;2.50;;;2.13;;
12433;SDS011;6281;49.038;8.372;2023-05-10T05:06:21;3.00;;;2.53;;
12433;SDS011;6281;49.038;8.372;2023-05-10T05:09:02;3.00;;;2.63;;
12433;SDS011;6281;49.038;8.372;2023-05-10T05:11:29;3.50;;;2.40;;
12433;SDS011;6281;49.038;8.372;2023-05-10T05:13:57;2.80;;;2.13;;
12433;SDS011;6281;49.038;8.372;2023-05-10T05:16:25;4.77;;;2.80;;
12433;SDS011;6281;49.038;8.372;2023-05-10T05:18:51;3.00;;;2.40;;
12433;SDS011;6281;49.038;8.372;2023-05-10T05:21:19;2.53;;;2.10;;
12433;SDS011;6281;49.038;8.372;2023-05-10T05:23:46;3.40;;;2.90;;
12433;SDS011;6281;49.038;8.372;2023-05-10T05:26:13;2.83;;;2.30;;
12433;SDS011;6281;49.038;8.372;2023-05-10T05:28:51;2.83;;;2.10;;
12433;SDS011;6281;49.038;8.372;2023-05-10T05:31:21;3.10;;;2.47;;
12433;SDS011;6281;49.038;8.372;2023-05-10T05:33:47;3.17;;;2.30;;
12433;SDS011;6281;49.038;8.372;2023-05-10T05:36:14;2.40;;;2.20;;
12433;SDS011;6281;49.038;8.372;2023-05-10T05:38:41;3.00;;;2.50;;
12433;SDS011;6281;49.038;8.372;2023-05-10T05:41:08;2.53;;;2.23;;
12433;SDS011;6281;49.038;8.372;2023-05-10T05:43:35;2.90;;;2.10;;
12433;SDS011;6281;49.038;8.372;2023-05-10T05:46:02;3.27;;;2.43;;
12433;SDS011;6281;49.038;8.372;2023-05-10T05:48:30;2.00;;;1.70;;
12433;SDS011;6281;49.038;8.372;2023-05-10T05:50:57;2.03;;;1.67;;
12433;SDS011;6281;49.038;8.372;2023-05-10T05:53:24;3.50;;;1.90;;
12433;SDS011;6281;49.038;8.372;2023-05-10T05:55:51;2.60;;;1.90;;
12433;SDS011;6281;49.038;8.372;2023-05-10T05:58:19;2.97;;;2.30;;
12433;SDS011;6281;49.038;8.372;2023-05-10T06:00:46;2.73;;;1.80;;
12433;SDS011;6281;49.038;8.372;2023-05-10T06:03:15;2.27;;;1.63;;
12433;SDS011;6281;49.038;8.372;2023-05-10T06:05:43;1.40;;;1.23;;
12433;SDS011;6281;49.038;8.372;2023-05-10T06:08:10;1.93;;;1.07;;
12433;SDS011;6281;49.038;8.372;2023-05-10T06:10:37;1.37;;;1.03;;
12433;SDS011;6281;49.038;8.372;2023-05-10T06:13:04;1.13;;;1.00;;
12433;SDS011;6281;49.038;8.372;2023-05-10T06:15:31;1.17;;;1.07;;
12433;SDS011;6281;49.038;8.372;2023-05-10T06:17:58;4.07;;;1.20;;
12433;SDS011;6281;49.038;8.372;2023-05-10T06:20:25;1.40;;;1.30;;
12433;SDS011;6281;49.038;8.372;2023-05-10T06:22:54;1.87;;;1.60;;
12433;SDS011;6281;49.038;8.372;2023-05-10T06:25:20;1.30;;;1.20;;
12433;SDS011;6281;49.038;8.372;2023-05-10T06:27:47;1.27;;;1.03;;
12433;SDS011;6281;49.038;8.372;2023-05-10T06:30:14;2.67;;;1.80;;
12433;SDS011;6281;49.038;8.372;2023-05-10T06:32:41;1.73;;;1.40;;
12433;SDS011;6281;49.038;8.372;2023-05-10T06:35:10;2.50;;;1.43;;
12433;SDS011;6281;49.038;8.372;2023-05-10T06:37:49;4.20;;;1.87;;
12433;SDS011;6281;49.038;8.372;2023-05-10T06:40:18;1.27;;;1.17;;
12433;SDS011;6281;49.038;8.372;2023-05-10T06:42:45;1.27;;;0.90;;
12433;SDS011;6281;49.038;8.372;2023-05-10T06:45:12;0.77;;;0.73;;
12433;SDS011;6281;49.038;8.372;2023-05-10T06:47:40;1.27;;;1.07;;
12433;SDS011;6281;49.038;8.372;2023-05-10T06:50:08;2.27;;;0.93;;
12433;SDS011;6281;49.038;8.372;2023-05-10T06:52:36;1.33;;;1.10;;
12433;SDS011;6281;49.038;8.372;2023-05-10T06:55:03;1.13;;;1.03;;
12433;SDS011;6281;49.038;8.372;2023-05-10T06:57:32;2.67;;;1.20;;
12433;SDS011;6281;49.038;8.372;2023-05-10T06:59:59;1.10;;;0.97;;
12433;SDS011;6281;49.038;8.372;2023-05-10T07:02:26;2.00;;;0.83;;
12433;SDS011;6281;49.038;8.372;2023-05-10T07:04:53;1.37;;;0.90;;
12433;SDS011;6281;49.038;8.372;2023-05-10T07:07:20;1.03;;;0.93;;
12433;SDS011;6281;49.038;8.372;2023-05-10T07:09:47;1.20;;;1.10;;
12433;SDS011;6281;49.038;8.372;2023-05-10T07:12:15;1.10;;;0.80;;
12433;SDS011;6281;49.038;8.372;2023-05-10T07:14:43;1.00;;;0.70;;
12433;SDS011;6281;49.038;8.372;2023-05-10T07:17:10;1.10;;;0.93;;
12433;SDS011;6281;49.038;8.372;2023-05-10T07:19:37;0.90;;;0.90;;
12433;SDS011;6281;49.038;8.372;2023-05-10T07:22:04;1.23;;;1.13;;
12433;SDS011;6281;49.038;8.372;2023-05-10T07:24:31;1.63;;;1.00;;
12433;SDS011;6281;49.038;8.372;2023-05-10T07:26:58;1.30;;;1.20;;
12433;SDS011;6281;49.038;8.372;2023-05-10T07:29:28;1.37;;;0.87;;
12433;SDS011;6281;49.038;8.372;2023-05-10T07:31:57;1.17;;;0.90;;
12433;SDS011;6281;49.038;8.372;2023-05-10T07:34:23;1.07;;;0.90;;
12433;SDS011;6281;49.038;8.372;2023-05-10T07:36:50;1.50;;;1.20;;
12433;SDS011;6281;49.038;8.372;2023-05-10T07:39:18;1.70;;;1.30;;
12433;SDS011;6281;49.038;8.372;2023-05-10T07:41:46;2.97;;;1.20;;
12433;SDS011;6281;49.038;8.372;2023-05-10T07:44:13;1.00;;;0.90;;
12433;SDS011;6281;49.038;8.372;2023-05-10T07:46:39;1.50;;;1.03;;
12433;SDS011;6281;49.038;8.372;2023-05-10T07:49:07;1.37;;;1.27;;
12433;SDS011;6281;49.038;8.372;2023-05-10T07:51:34;0.60;;;0.60;;
12433;SDS011;6281;49.038;8.372;2023-05-10T07:54:01;0.70;;;0.70;;
12433;SDS011;6281;49.038;8.372;2023-05-10T07:56:28;1.20;;;1.00;;
12433;SDS011;6281;49.038;8.372;2023-05-10T07:58:56;1.60;;;0.93;;
12433;SDS011;6281;49.038;8.372;2023-05-10T08:01:24;1.87;;;1.20;;
12433;SDS011;6281;49.038;8.372;2023-05-10T08:03:52;1.70;;;0.90;;
12433;SDS011;6281;49.038;8.372;2023-05-10T08:06:20;1.30;;;0.83;;
12433;SDS011;6281;49.038;8.372;2023-05-10T08:08:47;1.10;;;0.73;;
12433;SDS011;6281;49.038;8.372;2023-05-10T08:11:15;1.17;;;0.90;;
12433;SDS011;6281;49.038;8.372;2023-05-10T08:13:42;0.93;;;0.83;;
12433;SDS011;6281;49.038;8.372;2023-05-10T08:16:09;0.83;;;0.80;;
12433;SDS011;6281;49.038;8.372;2023-05-10T08:18:36;0.70;;;0.67;;
12433;SDS011;6281;49.038;8.372;2023-05-10T08:21:03;1.07;;;0.67;;
12433;SDS011;6281;49.038;8.372;2023-05-10T08:23:31;0.93;;;0.90;;
12433;SDS011;6281;49.038;8.372;2023-05-10T08:25:58;0.80;;;0.80;;
12433;SDS011;6281;49.038;8.372;2023-05-10T08:28:25;0.90;;;0.77;;
12433;SDS011;6281;49.038;8.372;2023-05-10T08:30:52;1.40;;;0.87;;
12433;SDS011;6281;49.038;8.372;2023-05-10T08:33:18;0.53;;;0.53;;
12433;SDS011;6281;49.038;8.372;2023-05-10T08:35:45;1.90;;;0.70;;
12433;SDS011;6281;49.038;8.372;2023-05-10T08:38:12;0.93;;;0.80;;
12433;SDS011;6281;49.038;8.372;2023-05-10T08:40:41;2.00;;;1.10;;
12433;SDS011;6281;49.038;8.372;2023-05-10T08:43:11;2.00;;;0.90;;
12433;SDS011;6281;49.038;8.372;2023-05-10T08:45:40;0.90;;;0.80;;
12433;SDS011;6281;49.038;8.372;2023-05-10T08:48:10;1.43;;;0.70;;
12433;SDS011;6281;49.038;8.372;2023-05-10T08:50:37;0.90;;;0.70;;
12433;SDS011;6281;49.038;8.372;2023-05-10T08:53:06;3.40;;;0.93;;
12433;SDS011;6281;49.038;8.372;2023-05-10T08:55:36;0.70;;;0.70;;
12433;SDS011;6281;49.038;8.372;2023-05-10T08:58:05;0.97;;;0.87;;
12433;SDS011;6281;49.038;8.372;2023-05-10T09:00:32;0.87;;;0.80;;
12433;SDS011;6281;49.038;8.372;2023-05-10T09:03:00;1.13;;;0.80;;
12433;SDS011;6281;49.038;8.372;2023-05-10T09:05:27;1.43;;;0.70;;
12433;SDS011;6281;49.038;8.372;2023-05-10T09:07:54;1.80;;;0.93;;
12433;SDS011;6281;49.038;8.372;2023-05-10T09:10:21;0.67;;;0.60;;
12433;SDS011;6281;49.038;8.372;2023-05-10T09:12:51;0.50;;;0.50;;
12433;SDS011;6281;49.038;8.372;2023-05-10T09:15:20;0.53;;;0.50;;
12433;SDS011;6281;49.038;8.372;2023-05-10T09:17:47;0.60;;;0.60;;
12433;SDS011;6281;49.038;8.372;2023-05-10T09:20:15;0.83;;;0.80;;
12433;SDS011;6281;49.038;8.372;2023-05-10T09:22:43;0.90;;;0.77;;
12433;SDS011;6281;49.038;8.372;2023-05-10T09:25:11;0.73;;;0.73;;
12433;SDS011;6281;49.038;8.372;2023-05-10T09:27:39;1.63;;;0.77;;
12433;SDS011;6281;49.038;8.372;2023-05-10T09:30:07;2.20;;;0.77;;
12433;SDS011;6281;49.038;8.372;2023-05-10T09:32:39;0.83;;;0.60;;
12433;SDS011;6281;49.038;8.372;2023-05-10T09:35:07;0.60;;;0.50;;
12433;SDS011;6281;49.038;8.372;2023-05-10T09:37:35;0.77;;;0.50;;
12433;SDS011;6281;49.038;8.372;2023-05-10T09:40:04;0.50;;;0.50;;
12433;SDS011;6281;49.038;8.372;2023-05-10T09:42:32;0.40;;;0.40;;
12433;SDS011;6281;49.038;8.372;2023-05-10T09:45:00;1.30;;;0.53;;
12433;SDS011;6281;49.038;8.372;2023-05-10T09:47:28;0.30;;;0.30;;
12433;SDS011;6281;49.038;8.372;2023-05-10T09:49:57;0.50;;;0.50;;
12433;SDS011;6281;49.038;8.372;2023-05-10T09:52:28;0.60;;;0.60;;
12433;SDS011;6281;49.038;8.372;2023-05-10T09:54:55;0.47;;;0.47;;
12433;SDS011;6281;49.038;8.372;2023-05-10T09:57:23;0.63;;;0.57;;
12433;SDS011;6281;49.038;8.372;2023-05-10T09:59:50;0.87;;;0.60;;
12433;SDS011;6281;49.038;8.372;2023-05-10T10:02:19;1.13;;;0.57;;
12433;SDS011;6281;49.038;8.372;2023-05-10T10:04:48;1.30;;;0.50;;
12433;SDS011;6281;49.038;8.372;2023-05-10T10:07:17;0.93;;;0.60;;
12433;SDS011;6281;49.038;8.372;2023-05-10T10:09:49;0.50;;;0.50;;
12433;SDS011;6281;49.038;8.372;2023-05-10T10:12:16;0.47;;;0.43;;
12433;SDS011;6281;49.038;8.372;2023-05-10T10:14:45;1.33;;;0.60;;
12433;SDS011;6281;49.038;8.372;2023-05-10T10:17:13;0.40;;;0.40;;
12433;SDS011;6281;49.038;8.372;2023-05-10T10:19:40;0.93;;;0.50;;
12433;SDS011;6281;49.038;8.372;2023-05-10T10:22:08;0.80;;;0.50;;
12433;SDS011;6281;49.038;8.372;2023-05-10T10:24:38;0.90;;;0.77;;
12433;SDS011;6281;49.038;8.372;2023-05-10T10:27:12;0.70;;;0.60;;
12433;SDS011;6281;49.038;8.372;2023-05-10T10:29:50;0.50;;;0.50;;
12433;SDS011;6281;49.038;8.372;2023-05-10T10:32:26;1.07;;;0.70;;
12433;SDS011;6281;49.038;8.372;2023-05-10T10:35:01;1.00;;;0.87;;
12433;SDS011;6281;49.038;8.372;2023-05-10T10:37:42;0.40;;;0.40;;
12433;SDS011;6281;49.038;8.372;2023-05-10T10:40:24;2.73;;;0.97;;
12433;SDS011;6281;49.038;8.372;2023-05-10T10:42:52;1.27;;;0.80;;
12433;SDS011;6281;49.038;8.372;2023-05-10T10:45:20;3.30;;;1.00;;
12433;SDS011;6281;49.038;8.372;2023-05-10T10:47:48;1.90;;;0.77;;
12433;SDS011;6281;49.038;8.372;2023-05-10T10:50:16;1.90;;;1.23;;
12433;SDS011;6281;49.038;8.372;2023-05-10T10:52:43;2.17;;;1.70;;
12433;SDS011;6281;49.038;8.372;2023-05-10T10:55:12;1.83;;;1.30;;
12433;SDS011;6281;49.038;8.372;2023-05-10T10:57:45;1.33;;;1.13;;
12433;SDS011;6281;49.038;8.372;2023-05-10T11:00:26;1.23;;;1.00;;
12433;SDS011;6281;49.038;8.372;2023-05-10T11:02:56;4.17;;;0.77;;
12433;SDS011;6281;49.038;8.372;2023-05-10T11:05:25;2.07;;;1.00;;
12433;SDS011;6281;49.038;8.372;2023-05-10T11:08:00;1.53;;;1.00;;
12433;SDS011;6281;49.038;8.372;2023-05-10T11:10:33;3.90;;;1.27;;
12433;SDS011;6281;49.038;8.372;2023-05-10T11:13:02;0.97;;;0.90;;
12433;SDS011;6281;49.038;8.372;2023-05-10T11:15:31;1.60;;;0.90;;
12433;SDS011;6281;49.038;8.372;2023-05-10T11:17:58;0.80;;;0.80;;
12433;SDS011;6281;49.038;8.372;2023-05-10T11:20:33;1.10;;;1.00;;
12433;SDS011;6281;49.038;8.372;2023-05-10T11:23:12;1.13;;;0.90;;
12433;SDS011;6281;49.038;8.372;2023-05-10T11:25:41;0.70;;;0.70;;
12433;SDS011;6281;49.038;8.372;2023-05-10T11:28:11;0.90;;;0.80;;
12433;SDS011;6281;49.038;8.372;2023-05-10T11:30:38;0.50;;;0.50;;
12433;SDS011;6281;49.038;8.372;2023-05-10T11:33:06;1.17;;;0.90;;
12433;SDS011;6281;49.038;8.372;2023-05-10T11:35:36;1.60;;;0.83;;
12433;SDS011;6281;49.038;8.372;2023-05-10T11:41:03;0.80;;;0.70;;
12433;SDS011;6281;49.038;8.372;2023-05-10T11:43:31;1.20;;;1.00;;
12433;SDS011;6281;49.038;8.372;2023-05-10T11:45:58;1.00;;;0.70;;
12433;SDS011;6281;49.038;8.372;2023-05-10T11:48:25;0.73;;;0.60;;
12433;SDS011;6281;49.038;8.372;2023-05-10T11:50:53;0.60;;;0.60;;
12433;SDS011;6281;49.038;8.372;2023-05-10T11:53:22;1.10;;;0.50;;
12433;SDS011;6281;49.038;8.372;2023-05-10T11:55:49;0.70;;;0.60;;
12433;SDS011;6281;49.038;8.372;2023-05-10T11:58:15;2.10;;;0.60;;
12433;SDS011;6281;49.038;8.372;2023-05-10T12:00:47;0.33;;;0.33;;
12433;SDS011;6281;49.038;8.372;2023-05-10T12:03:15;0.67;;;0.50;;
12433;SDS011;6281;49.038;8.372;2023-05-10T12:05:42;0.50;;;0.50;;
12433;SDS011;6281;49.038;8.372;2023-05-10T12:08:13;0.33;;;0.33;;
12433;SDS011;6281;49.038;8.372;2023-05-10T12:10:40;0.60;;;0.60;;
12433;SDS011;6281;49.038;8.372;2023-05-10T12:13:10;0.70;;;0.70;;
12433;SDS011;6281;49.038;8.372;2023-05-10T12:15:39;0.70;;;0.70;;
12433;SDS011;6281;49.038;8.372;2023-05-10T12:18:07;1.20;;;0.87;;
12433;SDS011;6281;49.038;8.372;2023-05-10T12:20:35;2.77;;;0.90;;
12433;SDS011;6281;49.038;8.372;2023-05-10T12:23:03;1.40;;;0.87;;
12433;SDS011;6281;49.038;8.372;2023-05-10T12:25:31;0.70;;;0.60;;
12433;SDS011;6281;49.038;8.372;2023-05-10T12:27:59;0.70;;;0.70;;
12433;SDS011;6281;49.038;8.372;2023-05-10T12:30:29;1.27;;;0.80;;
12433;SDS011;6281;49.038;8.372;2023-05-10T12:33:01;0.80;;;0.53;;
12433;SDS011;6281;49.038;8.372;2023-05-10T12:35:31;1.83;;;0.87;;
12433;SDS011;6281;49.038;8.372;2023-05-10T12:37:58;0.90;;;0.80;;
12433;SDS011;6281;49.038;8.372;2023-05-10T12:40:25;1.07;;;0.73;;
12433;SDS011;6281;49.038;8.372;2023-05-10T12:42:52;1.00;;;0.77;;
12433;SDS011;6281;49.038;8.372;2023-05-10T12:45:19;1.10;;;1.00;;
12433;SDS011;6281;49.038;8.372;2023-05-10T12:47:47;3.50;;;1.00;;
12433;SDS011;6281;49.038;8.372;2023-05-10T12:50:15;1.07;;;0.90;;
12433;SDS011;6281;49.038;8.372;2023-05-10T12:52:43;1.53;;;1.00;;
12433;SDS011;6281;49.038;8.372;2023-05-10T12:55:10;0.97;;;0.90;;
12433;SDS011;6281;49.038;8.372;2023-05-10T12:57:37;2.80;;;0.90;;
12433;SDS011;6281;49.038;8.372;2023-05-10T13:00:04;0.97;;;0.70;;
12433;SDS011;6281;49.038;8.372;2023-05-10T13:02:32;0.70;;;0.63;;
12433;SDS011;6281;49.038;8.372;2023-05-10T13:04:59;2.20;;;0.60;;
12433;SDS011;6281;49.038;8.372;2023-05-10T13:07:27;0.60;;;0.60;;
12433;SDS011;6281;49.038;8.372;2023-05-10T13:09:55;0.63;;;0.60;;
12433;SDS011;6281;49.038;8.372;2023-05-10T13:12:22;0.70;;;0.53;;
12433;SDS011;6281;49.038;8.372;2023-05-10T13:14:49;0.40;;;0.40;;
12433;SDS011;6281;49.038;8.372;2023-05-10T13:17:16;0.63;;;0.50;;
12433;SDS011;6281;49.038;8.372;2023-05-10T13:19:43;0.50;;;0.50;;
12433;SDS011;6281;49.038;8.372;2023-05-10T13:22:10;0.63;;;0.60;;
12433;SDS011;6281;49.038;8.372;2023-05-10T13:24:37;1.10;;;0.30;;
12433;SDS011;6281;49.038;8.372;2023-05-10T13:27:05;0.50;;;0.40;;
12433;SDS011;6281;49.038;8.372;2023-05-10T13:29:32;1.53;;;0.47;;
12433;SDS011;6281;49.038;8.372;2023-05-10T13:31:59;0.50;;;0.50;;
12433;SDS011;6281;49.038;8.372;2023-05-10T13:34:27;0.97;;;0.53;;
12433;SDS011;6281;49.038;8.372;2023-05-10T13:36:53;0.60;;;0.60;;
12433;SDS011;6281;49.038;8.372;2023-05-10T13:39:21;2.60;;;0.50;;
12433;SDS011;6281;49.038;8.372;2023-05-10T13:41:48;1.03;;;0.47;;
12433;SDS011;6281;49.038;8.372;2023-05-10T13:44:16;0.40;;;0.40;;
12433;SDS011;6281;49.038;8.372;2023-05-10T13:46:43;0.73;;;0.50;;
12433;SDS011;6281;49.038;8.372;2023-05-10T13:49:10;1.10;;;0.40;;
12433;SDS011;6281;49.038;8.372;2023-05-10T13:51:37;0.77;;;0.50;;
12433;SDS011;6281;49.038;8.372;2023-05-10T13:54:04;0.40;;;0.40;;
12433;SDS011;6281;49.038;8.372;2023-05-10T13:56:31;2.07;;;0.60;;
12433;SDS011;6281;49.038;8.372;2023-05-10T13:58:58;2.33;;;0.50;;
12433;SDS011;6281;49.038;8.372;2023-05-10T14:01:27;0.37;;;0.37;;
12433;SDS011;6281;49.038;8.372;2023-05-10T14:03:54;0.30;;;0.30;;
12433;SDS011;6281;49.038;8.372;2023-05-10T14:06:21;1.20;;;0.40;;
12433;SDS011;6281;49.038;8.372;2023-05-10T14:08:48;1.03;;;0.30;;
12433;SDS011;6281;49.038;8.372;2023-05-10T14:11:14;0.60;;;0.47;;
12433;SDS011;6281;49.038;8.372;2023-05-10T14:13:42;0.63;;;0.40;;
12433;SDS011;6281;49.038;8.372;2023-05-10T14:16:09;0.40;;;0.30;;
12433;SDS011;6281;49.038;8.372;2023-05-10T14:18:38;0.40;;;0.40;;
12433;SDS011;6281;49.038;8.372;2023-05-10T14:21:04;0.57;;;0.40;;
12433;SDS011;6281;49.038;8.372;2023-05-10T14:23:31;0.53;;;0.40;;
12433;SDS011;6281;49.038;8.372;2023-05-10T14:25:58;0.57;;;0.40;;
12433;SDS011;6281;49.038;8.372;2023-05-10T14:28:25;0.30;;;0.30;;
12433;SDS011;6281;49.038;8.372;2023-05-10T14:30:52;0.30;;;0.30;;
12433;SDS011;6281;49.038;8.372;2023-05-10T14:33:19;0.53;;;0.50;;
12433;SDS011;6281;49.038;8.372;2023-05-10T14:35:48;0.43;;;0.43;;
12433;SDS011;6281;49.038;8.372;2023-05-10T14:38:15;0.30;;;0.30;;
12433;SDS011;6281;49.038;8.372;2023-05-10T14:40:42;0.83;;;0.60;;
12433;SDS011;6281;49.038;8.372;2023-05-10T14:43:09;0.40;;;0.40;;
12433;SDS011;6281;49.038;8.372;2023-05-10T14:45:36;0.37;;;0.37;;
12433;SDS011;6281;49.038;8.372;2023-05-10T14:48:03;0.40;;;0.40;;
12433;SDS011;6281;49.038;8.372;2023-05-10T14:50:30;0.93;;;0.33;;
12433;SDS011;6281;49.038;8.372;2023-05-10T14:52:59;0.40;;;0.40;;
12433;SDS011;6281;49.038;8.372;2023-05-10T14:55:26;0.30;;;0.30;;
12433;SDS011;6281;49.038;8.372;2023-05-10T14:57:53;0.73;;;0.50;;
12433;SDS011;6281;49.038;8.372;2023-05-10T15:00:20;0.73;;;0.63;;
12433;SDS011;6281;49.038;8.372;2023-05-10T15:02:50;0.40;;;0.40;;
12433;SDS011;6281;49.038;8.372;2023-05-10T15:05:16;0.40;;;0.40;;
12433;SDS011;6281;49.038;8.372;2023-05-10T15:07:43;1.70;;;0.50;;
12433;SDS011;6281;49.038;8.372;2023-05-10T15:10:12;0.67;;;0.40;;